Time;durP1;ratioP1;P1;durP2;ratioP2;P2;SDS_P1;SDS_P2;PMS_P1;PMS_P2;Temp;Humidity;BMP_temperature;BMP_pressure;BME280_temperature;BME280_humidity;BME280_pressure;Samples;Min_cycle;Max_cycle;Signal;HPM_P1;HPM_P2
2024/01/28 00:05:56;;;;;;;0.00;0.00;;;2.80;64.70;;;;;;21039143;27;20120;-45
2024/01/28 00:15:58;;;;;;;0.47;0.00;;;2.00;68.90;;;;;;21037366;27;20400;-45
2024/01/28 00:26:02;;;;;;;0.20;0.00;;;1.50;70.20;;;;;;21037907;27;20039;-47
2024/01/28 00:36:04;;;;;;;0.30;0.00;;;1.10;72.50;;;;;;21038071;27;20059;-48
2024/01/28 00:46:06;;;;;;;0.20;0.00;;;0.90;73.90;;;;;;21033301;27;20039;-50
2024/01/28 00:56:08;;;;;;;0.30;0.00;;;0.30;74.90;;;;;;21033290;28;20043;-46
2024/01/28 01:06:09;;;;;;;0.13;0.10;;;0.20;77.60;;;;;;21036115;28;20035;-46
2024/01/28 01:16:11;;;;;;;0.35;0.20;;;-0.10;78.30;;;;;;21035179;28;20092;-47
2024/01/28 01:26:13;;;;;;;0.90;0.50;;;-0.10;79.50;;;;;;21036056;28;20043;-48
2024/01/28 01:36:15;;;;;;;2.80;0.80;;;-0.20;84.20;;;;;;21035375;28;20075;-51
2024/01/28 01:46:18;;;;;;;2.67;1.38;;;-0.30;89.00;;;;;;21035582;28;21210;-46
2024/01/28 01:56:20;;;;;;;2.83;1.50;;;-0.20;92.00;;;;;;21039804;27;20039;-45
2024/01/28 02:06:22;;;;;;;2.40;1.42;;;-0.10;93.10;;;;;;21049917;27;20031;-46
2024/01/28 02:16:26;;;;;;;1.77;0.90;;;-0.10;94.60;;;;;;21019812;22;20057;-45
2024/01/28 02:26:28;;;;;;;2.33;1.02;;;-0.10;96.00;;;;;;20760602;28;20032;-45
2024/01/28 02:36:31;;;;;;;1.80;1.10;;;-0.20;96.90;;;;;;20759718;28;20037;-44
2024/01/28 02:46:33;;;;;;;2.90;0.95;;;-0.40;97.90;;;;;;20759867;28;20037;-45
2024/01/28 02:56:37;;;;;;;2.25;0.90;;;-0.50;98.80;;;;;;20757259;28;20037;-46
2024/01/28 03:06:41;;;;;;;1.90;0.85;;;-0.60;99.80;;;;;;20737551;28;20148;-46
2024/01/28 03:16:42;;;;;;;2.05;0.98;;;-0.50;99.90;;;;;;20751700;28;20138;-44
2024/01/28 03:26:44;;;;;;;1.75;0.60;;;-0.60;99.90;;;;;;20754749;28;20118;-46
2024/01/28 03:36:46;;;;;;;0.95;0.60;;;-0.70;99.90;;;;;;20754174;28;20560;-44
2024/01/28 03:46:47;;;;;;;1.25;0.70;;;-0.70;99.90;;;;;;20754716;28;20584;-44
2024/01/28 03:56:49;;;;;;;1.83;0.88;;;-0.80;99.90;;;;;;20753344;28;20059;-44
2024/01/28 04:06:51;;;;;;;1.65;0.60;;;-0.90;99.90;;;;;;20752567;28;20854;-45
2024/01/28 04:16:53;;;;;;;1.27;0.70;;;-0.80;99.90;;;;;;20750751;28;20057;-45
2024/01/28 04:26:55;;;;;;;1.65;0.60;;;-0.90;99.90;;;;;;20750709;28;20040;-46
2024/01/28 04:36:57;;;;;;;1.48;0.57;;;-0.90;99.90;;;;;;20751685;28;20067;-45
2024/01/28 04:46:59;;;;;;;1.52;0.80;;;-0.80;99.90;;;;;;20749346;28;20450;-46
2024/01/28 04:57:01;;;;;;;4.38;0.82;;;-0.80;99.90;;;;;;20746991;28;20044;-45
2024/01/28 05:07:05;;;;;;;6.25;0.70;;;-0.90;99.90;;;;;;20748398;28;20086;-46
2024/01/28 05:17:09;;;;;;;1.52;0.70;;;-1.00;99.90;;;;;;20749046;28;21167;-45
2024/01/28 05:27:11;;;;;;;3.88;0.85;;;-1.00;99.90;;;;;;20750788;28;20037;-45
2024/01/28 05:37:15;;;;;;;1.30;0.60;;;-0.90;99.90;;;;;;20763686;28;20049;-44
2024/01/28 05:47:17;;;;;;;1.17;0.60;;;-0.90;99.90;;;;;;20763205;28;20098;-45
2024/01/28 05:57:19;;;;;;;1.90;0.93;;;-0.90;99.90;;;;;;20760963;28;20445;-47
2024/01/28 06:07:23;;;;;;;1.15;0.60;;;-0.80;99.90;;;;;;20762058;28;20041;-44
2024/01/28 06:17:25;;;;;;;1.65;0.55;;;-0.90;99.90;;;;;;20759922;28;20111;-44
2024/01/28 06:27:27;;;;;;;1.65;0.80;;;-0.90;99.90;;;;;;20759614;28;20033;-45
2024/01/28 06:37:29;;;;;;;1.80;0.75;;;-0.80;99.90;;;;;;20757360;28;20436;-45
2024/01/28 06:47:31;;;;;;;0.98;0.55;;;-0.70;99.90;;;;;;20753813;28;20130;-45
2024/01/28 06:57:32;;;;;;;1.25;0.60;;;-1.00;99.90;;;;;;20752571;28;20041;-45
2024/01/28 07:07:34;;;;;;;1.70;0.73;;;-1.00;99.90;;;;;;20753682;28;20037;-45
2024/01/28 07:17:36;;;;;;;1.92;0.70;;;-0.90;99.90;;;;;;20751347;28;20049;-45
2024/01/28 07:27:38;;;;;;;1.08;0.75;;;-0.80;99.90;;;;;;20750926;28;20037;-45
2024/01/28 07:37:43;;;;;;;2.33;0.95;;;-0.70;99.90;;;;;;20751800;28;20036;-44
2024/01/28 07:47:45;;;;;;;2.33;1.00;;;-0.50;99.90;;;;;;20749426;28;21044;-44
2024/01/28 07:57:47;;;;;;;1.85;1.17;;;-0.10;99.90;;;;;;20746991;28;20830;-45
2024/01/28 08:07:48;;;;;;;4.88;0.60;;;0.60;99.90;;;;;;20748240;28;20033;-44
2024/01/28 08:17:51;;;;;;;1.75;0.68;;;1.50;99.90;;;;;;20745828;28;20418;-45
2024/01/28 08:27:52;;;;;;;2.08;0.40;;;2.40;99.50;;;;;;20747183;28;20037;-46
2024/01/28 08:37:54;;;;;;;1.23;0.70;;;3.50;96.40;;;;;;20744751;28;20449;-47
2024/01/28 08:47:59;;;;;;;1.38;0.55;;;4.70;93.80;;;;;;20746431;28;20090;-46
2024/01/28 08:58:01;;;;;;;2.38;0.80;;;5.50;92.90;;;;;;20744525;28;20083;-46
2024/01/28 09:08:03;;;;;;;1.45;0.70;;;6.20;91.30;;;;;;20756385;28;20561;-49
2024/01/28 09:18:06;;;;;;;2.25;0.82;;;6.50;90.20;;;;;;20746205;28;20049;-45
2024/01/28 09:28:07;;;;;;;1.90;0.85;;;6.70;89.50;;;;;;20759468;28;20037;-49
2024/01/28 09:38:09;;;;;;;2.70;0.85;;;7.10;88.30;;;;;;20760089;28;20122;-47
2024/01/28 09:48:12;;;;;;;2.63;1.13;;;7.30;84.80;;;;;;20757089;28;20044;-46
2024/01/28 09:58:14;;;;;;;1.95;1.00;;;7.50;85.50;;;;;;20753011;28;20036;-46
2024/01/28 10:08:16;;;;;;;1.92;1.20;;;8.00;83.60;;;;;;20754645;28;20082;-47
2024/01/28 10:18:18;;;;;;;2.03;1.00;;;8.10;81.60;;;;;;20756105;28;20053;-46
2024/01/28 10:28:20;;;;;;;2.95;1.10;;;8.40;82.50;;;;;;20757868;28;20064;-45
2024/01/28 10:38:25;;;;;;;3.22;1.30;;;8.40;81.30;;;;;;20757771;28;20111;-45
2024/01/28 10:48:31;;;;;;;2.47;1.23;;;8.50;79.60;;;;;;20752216;28;20032;-46
2024/01/28 10:58:36;;;;;;;2.38;1.00;;;8.90;78.10;;;;;;20751842;28;20037;-45
2024/01/28 11:08:39;;;;;;;2.03;1.20;;;8.90;79.30;;;;;;20576148;28;20508;-45
2024/01/28 11:18:41;;;;;;;3.22;1.10;;;8.90;79.00;;;;;;20575813;28;20097;-46
2024/01/28 11:28:48;;;;;;;1.75;1.08;;;9.30;78.30;;;;;;20575068;28;20054;-46
2024/01/28 11:39:00;;;;;;;4.07;1.33;;;9.40;77.20;;;;;;20710946;28;20755;-47
2024/01/28 11:49:04;;;;;;;2.88;1.48;;;9.20;77.50;;;;;;20729691;28;20082;-49
2024/01/28 11:59:06;;;;;;;3.72;1.50;;;9.30;78.20;;;;;;20747229;28;20041;-47
2024/01/28 12:09:08;;;;;;;2.53;1.50;;;9.30;77.20;;;;;;20746452;28;20095;-45
2024/01/28 12:19:13;;;;;;;2.13;1.20;;;9.30;78.70;;;;;;20746284;28;20095;-48
2024/01/28 12:29:20;;;;;;;2.97;1.48;;;9.30;78.30;;;;;;20745164;28;20041;-47
2024/01/28 12:39:24;;;;;;;2.28;1.02;;;9.50;76.90;;;;;;20746729;28;20106;-45
2024/01/28 12:49:26;;;;;;;1.70;1.00;;;9.20;78.30;;;;;;20744517;28;20077;-46
2024/01/28 12:59:28;;;;;;;3.10;1.23;;;9.60;78.10;;;;;;20744558;28;20437;-47
2024/01/28 13:09:30;;;;;;;1.42;0.90;;;9.80;76.00;;;;;;20709016;28;20090;-48
2024/01/28 13:19:32;;;;;;;1.80;0.75;;;9.50;76.50;;;;;;20741246;28;20068;-46
2024/01/28 13:29:35;;;;;;;1.48;0.98;;;9.00;76.10;;;;;;20725731;28;20105;-48
2024/01/28 13:39:40;;;;;;;2.40;1.05;;;8.40;76.20;;;;;;20743203;28;20441;-44
2024/01/28 13:49:42;;;;;;;2.00;1.10;;;7.50;78.50;;;;;;20748192;28;20037;-45
2024/01/28 13:59:44;;;;;;;2.03;1.13;;;6.90;79.70;;;;;;20758507;28;20445;-45
2024/01/28 14:09:49;;;;;;;4.65;1.40;;;6.70;79.10;;;;;;20756663;28;20040;-45
2024/01/28 14:19:51;;;;;;;3.45;1.52;;;6.30;79.70;;;;;;20755174;28;20839;-46
2024/01/28 14:29:53;;;;;;;2.70;1.60;;;6.00;80.00;;;;;;20754921;28;21560;-55
2024/01/28 14:39:54;;;;;;;4.75;1.50;;;5.60;80.70;;;;;;20734396;28;20041;-45
2024/01/28 14:49:56;;;;;;;2.85;1.70;;;5.40;81.00;;;;;;20754005;28;20041;-45
2024/01/28 14:59:58;;;;;;;5.43;2.08;;;5.00;83.00;;;;;;20753821;28;20086;-46
2024/01/28 15:10:01;;;;;;;3.70;1.98;;;4.80;83.20;;;;;;20752684;28;20041;-44
2024/01/28 15:20:05;;;;;;;4.15;2.20;;;4.50;83.40;;;;;;20751055;28;21108;-45
2024/01/28 15:30:09;;;;;;;5.20;1.38;;;4.20;84.50;;;;;;20751393;28;20067;-45
2024/01/28 15:40:11;;;;;;;4.47;1.08;;;3.30;89.10;;;;;;20752023;28;20064;-46
2024/01/28 15:50:13;;;;;;;3.63;1.92;;;2.60;91.40;;;;;;20749543;28;20033;-44
2024/01/28 16:00:16;;;;;;;3.13;0.90;;;1.80;93.00;;;;;;20748852;28;20091;-43
2024/01/28 16:10:19;;;;;;;6.25;3.78;;;1.40;94.50;;;;;;20729332;28;20033;-44
2024/01/28 16:20:21;;;;;;;2.17;1.00;;;1.20;95.30;;;;;;20746447;28;20045;-45
2024/01/28 16:30:22;;;;;;;4.57;2.88;;;0.90;95.00;;;;;;20745645;28;20053;-44
2024/01/28 16:40:24;;;;;;;4.18;0.90;;;0.70;95.80;;;;;;20749735;28;20041;-44
2024/01/28 16:50:27;;;;;;;3.42;1.15;;;0.50;96.20;;;;;;20749497;28;20665;-44
2024/01/28 17:00:29;;;;;;;1.13;0.60;;;0.20;97.00;;;;;;20750021;28;20033;-43
2024/01/28 17:10:32;;;;;;;2.03;0.70;;;0.10;97.20;;;;;;20730976;28;20040;-43
2024/01/28 17:20:34;;;;;;;2.53;0.88;;;0.10;97.40;;;;;;20749672;28;20057;-42
2024/01/28 17:30:36;;;;;;;1.50;0.65;;;0.20;98.10;;;;;;20760743;28;20095;-43
2024/01/28 17:40:42;;;;;;;1.92;0.98;;;0.20;98.00;;;;;;20762690;28;20122;-43
2024/01/28 17:50:44;;;;;;;2.03;0.70;;;0.10;98.10;;;;;;20763336;28;20043;-45
2024/01/28 18:00:46;;;;;;;0.98;0.50;;;-0.20;97.30;;;;;;20753412;28;20065;-43
2024/01/28 18:10:48;;;;;;;6.28;3.10;;;-0.20;96.80;;;;;;20760971;28;20044;-46
2024/01/28 18:20:50;;;;;;;6.15;3.38;;;-0.20;96.00;;;;;;20757597;28;20053;-44
2024/01/28 18:30:54;;;;;;;1.60;0.85;;;-0.10;95.50;;;;;;20761399;28;20041;-44
2024/01/28 18:41:00;;;;;;;1.27;0.45;;;-0.10;96.00;;;;;;20756271;28;20045;-44
2024/01/28 18:51:08;;;;;;;1.73;0.60;;;-0.30;96.50;;;;;;20756444;28;20394;-44
2024/01/28 19:01:10;;;;;;;1.75;0.95;;;-0.30;96.90;;;;;;20756728;28;20041;-45
2024/01/28 19:11:12;;;;;;;1.85;0.80;;;-0.60;97.60;;;;;;20756801;28;20491;-43
2024/01/28 19:21:16;;;;;;;1.80;0.73;;;-0.50;97.80;;;;;;20737659;28;20045;-43
2024/01/28 19:31:18;;;;;;;0.98;0.60;;;-0.50;98.40;;;;;;20754188;28;20118;-43
2024/01/28 19:41:20;;;;;;;1.40;0.50;;;-0.50;98.00;;;;;;20755503;28;20118;-44
2024/01/28 19:51:23;;;;;;;2.67;1.00;;;-0.40;97.70;;;;;;20751964;28;20040;-45
2024/01/28 20:01:25;;;;;;;3.15;0.60;;;-0.50;98.50;;;;;;20750585;28;20041;-44
2024/01/28 20:11:27;;;;;;;2.20;0.77;;;-0.50;98.00;;;;;;20753090;28;20037;-43
2024/01/28 20:21:30;;;;;;;1.45;0.70;;;-0.60;98.10;;;;;;20750797;28;20128;-44
2024/01/28 20:31:32;;;;;;;1.50;0.52;;;-0.60;98.20;;;;;;20751329;28;20398;-45
2024/01/28 20:41:36;;;;;;;2.53;0.88;;;-0.60;98.80;;;;;;20749751;28;20067;-43
2024/01/28 20:51:39;;;;;;;2.13;0.45;;;-0.60;98.20;;;;;;20748955;28;21206;-44
2024/01/28 21:01:41;;;;;;;1.15;0.55;;;-0.40;97.70;;;;;;20759477;28;20067;-45
2024/01/28 21:11:42;;;;;;;0.95;0.52;;;-0.20;97.60;;;;;;20747008;28;20088;-44
2024/01/28 21:21:44;;;;;;;1.30;0.80;;;-0.30;97.50;;;;;;20764569;28;20079;-45
2024/01/28 21:31:46;;;;;;;1.15;0.73;;;-0.40;98.00;;;;;;20764553;28;20118;-43
2024/01/28 21:41:49;;;;;;;1.20;0.70;;;-0.60;99.00;;;;;;20766166;28;20036;-44
2024/01/28 21:51:54;;;;;;;2.92;0.90;;;-0.80;99.40;;;;;;20761783;28;20122;-45
2024/01/28 22:01:56;;;;;;;2.70;0.50;;;-1.00;99.90;;;;;;20762202;28;21197;-45
2024/01/28 22:11:57;;;;;;;2.28;0.63;;;-1.20;99.90;;;;;;20758542;28;21026;-46
2024/01/28 22:21:59;;;;;;;1.73;1.00;;;-0.90;99.30;;;;;;20761468;28;20049;-46
2024/01/28 22:32:01;;;;;;;1.92;0.73;;;-1.00;99.90;;;;;;20759430;28;20178;-44
2024/01/28 22:42:03;;;;;;;1.52;0.75;;;-1.10;99.80;;;;;;20758632;28;20053;-44
2024/01/28 22:52:05;;;;;;;1.40;0.70;;;-1.10;99.90;;;;;;20753213;28;20032;-44
2024/01/28 23:02:20;;;;;;;2.20;0.77;;;-1.30;99.90;;;;;;20757743;28;20041;-47
2024/01/28 23:12:23;;;;;;;1.67;0.80;;;-1.40;99.90;;;;;;20754986;28;20365;-46
2024/01/28 23:22:25;;;;;;;1.00;0.60;;;-1.20;99.90;;;;;;20754884;28;20052;-45
2024/01/28 23:32:27;;;;;;;1.38;0.63;;;-1.30;99.90;;;;;;20756064;28;20119;-43
2024/01/28 23:42:28;;;;;;;1.75;0.60;;;-1.00;99.20;;;;;;20755639;28;20071;-45
2024/01/28 23:52:30;;;;;;;2.45;0.70;;;-1.00;99.50;;;;;;20753682;28;20441;-46
